Time;durP1;ratioP1;P1;durP2;ratioP2;P2;SDS_P1;SDS_P2;PMS_P1;PMS_P2;Temp;Humidity;BMP_temperature;BMP_pressure;BME280_temperature;BME280_humidity;BME280_pressure;Samples;Min_cycle;Max_cycle;Signal;HPM_P1;HPM_P2
2021/04/27 00:03:25;;;;;;;17.63;9.80;;;;;;;;;;10358433;28;20405;-58
2021/04/27 00:08:22;;;;;;;17.30;9.73;;;;;;;;;;10358398;28;20044;-59
2021/04/27 00:13:20;;;;;;;11.73;7.93;;;;;;;;;;10357484;28;20064;-59
2021/04/27 00:18:17;;;;;;;10.15;8.90;;;;;;;;;;10358522;28;20047;-58
2021/04/27 00:23:15;;;;;;;12.13;8.60;;;;;;;;;;10358018;28;20071;-61
2021/04/27 00:28:13;;;;;;;11.95;7.95;;;;;;;;;;10356446;28;20051;-59
2021/04/27 00:33:10;;;;;;;8.85;7.90;;;;;;;;;;10356554;28;20134;-60
2021/04/27 00:38:07;;;;;;;9.05;8.05;;;;;;;;;;10357863;28;20044;-60
2021/04/27 00:43:06;;;;;;;9.35;8.35;;;;;;;;;;10357534;28;20086;-58
2021/04/27 00:48:04;;;;;;;14.85;8.88;;;;;;;;;;10357831;28;20382;-60
2021/04/27 00:53:03;;;;;;;10.25;8.43;;;;;;;;;;10357814;28;20079;-60
2021/04/27 00:58:01;;;;;;;8.77;7.18;;;;;;;;;;10356639;28;20052;-60
2021/04/27 01:03:00;;;;;;;9.35;7.80;;;;;;;;;;10361321;28;20044;-58
2021/04/27 01:08:00;;;;;;;12.05;8.30;;;;;;;;;;10363628;28;20055;-57
2021/04/27 01:13:00;;;;;;;11.05;7.70;;;;;;;;;;10363378;28;20067;-58
2021/04/27 01:17:59;;;;;;;10.95;8.73;;;;;;;;;;10364739;28;20067;-58
2021/04/27 01:23:03;;;;;;;15.25;8.43;;;;;;;;;;10363619;28;20455;-58
2021/04/27 01:28:03;;;;;;;10.38;8.13;;;;;;;;;;10364361;28;20091;-58
2021/04/27 01:33:00;;;;;;;13.60;8.45;;;;;;;;;;10362694;28;20079;-58
2021/04/27 01:37:58;;;;;;;12.70;7.97;;;;;;;;;;10364116;28;20074;-59
2021/04/27 01:42:56;;;;;;;13.02;8.50;;;;;;;;;;10362803;28;20044;-58
2021/04/27 01:47:55;;;;;;;12.32;8.25;;;;;;;;;;10362048;28;20052;-58
2021/04/27 01:52:53;;;;;;;13.20;9.27;;;;;;;;;;10361604;28;20055;-57
2021/04/27 01:57:51;;;;;;;15.45;10.00;;;;;;;;;;10362110;28;20500;-57
2021/04/27 02:02:49;;;;;;;13.68;9.30;;;;;;;;;;10361968;28;20052;-57
2021/04/27 02:08:16;;;;;;;14.25;8.25;;;;;;;;;;10368376;28;20063;-59
2021/04/27 02:13:18;;;;;;;15.10;8.25;;;;;;;;;;10359764;28;20075;-58
2021/04/27 02:18:27;;;;;;;12.52;7.80;;;;;;;;;;10362575;28;20036;-58
2021/04/27 02:23:27;;;;;;;11.25;9.48;;;;;;;;;;10360826;28;20417;-58
2021/04/27 02:28:29;;;;;;;13.30;9.15;;;;;;;;;;10360852;28;20059;-58
2021/04/27 02:33:27;;;;;;;14.75;9.75;;;;;;;;;;10361941;28;20071;-59
2021/04/27 02:38:24;;;;;;;9.52;8.63;;;;;;;;;;10361818;28;20090;-59
2021/04/27 02:43:24;;;;;;;10.55;8.27;;;;;;;;;;10360269;28;20055;-59
2021/04/27 02:48:23;;;;;;;10.05;7.93;;;;;;;;;;10360264;28;20472;-59
2021/04/27 02:53:24;;;;;;;12.77;8.30;;;;;;;;;;10361142;28;20078;-59
2021/04/27 02:58:22;;;;;;;11.77;8.95;;;;;;;;;;10359474;28;20052;-59
2021/04/27 03:03:27;;;;;;;;;;;;;;;;;;10359897;28;20063;-59
2021/04/27 03:08:25;;;;;;;11.68;9.10;;;;;;;;;;10357393;28;20300;-59
2021/04/27 03:13:22;;;;;;;9.63;7.75;;;;;;;;;;10360502;28;20118;-59
2021/04/27 03:18:22;;;;;;;10.95;7.80;;;;;;;;;;10360604;28;20052;-59
2021/04/27 03:23:22;;;;;;;10.80;8.80;;;;;;;;;;10358632;28;20055;-59
2021/04/27 03:28:20;;;;;;;12.25;7.60;;;;;;;;;;10360089;28;20045;-58
2021/04/27 03:33:30;;;;;;;13.30;8.77;;;;;;;;;;10358773;28;20044;-58
2021/04/27 03:38:28;;;;;;;9.00;8.13;;;;;;;;;;10358491;28;20059;-58
2021/04/27 03:43:27;;;;;;;11.20;7.97;;;;;;;;;;10356073;28;20055;-59
2021/04/27 03:48:25;;;;;;;17.25;10.15;;;;;;;;;;10356674;28;20044;-59
2021/04/27 03:53:28;;;;;;;11.88;10.10;;;;;;;;;;10357714;28;20083;-59
2021/04/27 03:58:26;;;;;;;20.08;14.05;;;;;;;;;;10358153;28;20051;-59
2021/04/27 04:03:24;;;;;;;15.27;12.35;;;;;;;;;;10357716;28;20052;-59
2021/04/27 04:08:22;;;;;;;11.90;10.10;;;;;;;;;;10358796;28;20040;-59
2021/04/27 04:13:21;;;;;;;24.05;17.55;;;;;;;;;;10357636;28;20090;-59
2021/04/27 04:18:21;;;;;;;22.42;16.58;;;;;;;;;;10356951;28;20058;-59
2021/04/27 04:23:19;;;;;;;15.20;12.70;;;;;;;;;;10356349;28;20071;-59
2021/04/27 04:28:17;;;;;;;13.95;11.80;;;;;;;;;;10357097;28;20052;-59
2021/04/27 04:33:14;;;;;;;17.05;11.45;;;;;;;;;;10358216;28;20405;-59
2021/04/27 04:38:31;;;;;;;15.85;12.20;;;;;;;;;;10362896;28;20052;-59
2021/04/27 04:43:47;;;;;;;27.48;10.05;;;;;;;;;;10362979;28;20044;-59
2021/04/27 04:49:03;;;;;;;17.50;12.35;;;;;;;;;;10362779;28;20548;-59
2021/04/27 04:54:14;;;;;;;13.82;11.80;;;;;;;;;;10360849;28;20095;-59
2021/04/27 04:59:12;;;;;;;13.95;12.02;;;;;;;;;;10354388;28;20083;-58
2021/04/27 05:04:09;;;;;;;14.30;11.40;;;;;;;;;;10355835;28;20047;-59
2021/04/27 05:09:08;;;;;;;12.77;11.50;;;;;;;;;;10356042;28;20050;-59
2021/04/27 05:14:23;;;;;;;12.38;10.73;;;;;;;;;;10355690;28;20059;-59
2021/04/27 05:19:20;;;;;;;16.75;13.00;;;;;;;;;;10357526;28;20316;-58
2021/04/27 05:24:18;;;;;;;9.55;8.65;;;;;;;;;;10355550;28;20044;-59
2021/04/27 05:29:16;;;;;;;14.10;11.05;;;;;;;;;;10357321;28;20102;-59
2021/04/27 05:34:14;;;;;;;17.05;11.05;;;;;;;;;;10356998;28;20084;-59
2021/04/27 05:39:12;;;;;;;12.25;10.02;;;;;;;;;;10357333;28;20440;-60
2021/04/27 05:44:09;;;;;;;12.68;11.35;;;;;;;;;;10356983;28;20047;-60
2021/04/27 05:49:07;;;;;;;14.73;11.32;;;;;;;;;;10360254;28;20048;-59
2021/04/27 05:54:06;;;;;;;15.15;11.57;;;;;;;;;;10363909;28;20081;-59
2021/04/27 05:59:04;;;;;;;12.80;10.85;;;;;;;;;;10363183;28;20059;-60
2021/04/27 06:04:01;;;;;;;17.95;11.70;;;;;;;;;;10362002;28;20051;-60
2021/04/27 06:09:06;;;;;;;15.55;11.35;;;;;;;;;;10363500;28;20044;-58
2021/04/27 06:14:04;;;;;;;13.82;12.00;;;;;;;;;;10363345;28;20512;-58
2021/04/27 06:19:02;;;;;;;17.70;12.32;;;;;;;;;;10363004;28;20048;-59
2021/04/27 06:23:59;;;;;;;17.17;12.77;;;;;;;;;;10362437;28;20424;-59
2021/04/27 06:28:57;;;;;;;14.35;10.93;;;;;;;;;;10362574;28;20513;-59
2021/04/27 06:33:55;;;;;;;13.70;12.05;;;;;;;;;;10362421;28;20079;-58
2021/04/27 06:38:53;;;;;;;16.38;12.38;;;;;;;;;;10362337;28;20078;-59
2021/04/27 06:43:51;;;;;;;12.80;10.80;;;;;;;;;;10362223;28;20052;-59
2021/04/27 06:48:50;;;;;;;18.30;14.13;;;;;;;;;;10361878;28;20047;-59
2021/04/27 06:53:48;;;;;;;13.50;10.95;;;;;;;;;;10361693;28;20074;-59
2021/04/27 06:58:46;;;;;;;16.13;12.48;;;;;;;;;;10358797;28;20501;-59
2021/04/27 07:03:47;;;;;;;25.70;21.30;;;;;;;;;;10361266;28;20047;-59
2021/04/27 07:08:46;;;;;;;13.88;12.35;;;;;;;;;;10361257;28;20052;-59
2021/04/27 07:13:43;;;;;;;16.45;10.52;;;;;;;;;;10360843;28;20040;-59
2021/04/27 07:18:41;;;;;;;18.02;13.00;;;;;;;;;;10360556;28;20068;-59
2021/04/27 07:23:38;;;;;;;13.57;11.82;;;;;;;;;;10360614;28;20523;-59
2021/04/27 07:28:36;;;;;;;31.80;13.77;;;;;;;;;;10360199;28;20409;-60
2021/04/27 07:33:34;;;;;;;15.10;13.15;;;;;;;;;;10359507;28;20036;-59
2021/04/27 07:38:32;;;;;;;17.70;12.05;;;;;;;;;;10357922;28;20071;-59
2021/04/27 07:43:29;;;;;;;19.80;14.02;;;;;;;;;;10359804;28;20047;-59
2021/04/27 07:48:27;;;;;;;13.70;12.15;;;;;;;;;;10359386;28;20072;-59
2021/04/27 07:53:25;;;;;;;17.35;12.70;;;;;;;;;;10359148;28;20044;-59
2021/04/27 07:58:23;;;;;;;17.63;14.27;;;;;;;;;;10358272;28;20098;-59
2021/04/27 08:03:20;;;;;;;16.63;11.63;;;;;;;;;;10358890;28;20051;-59
2021/04/27 08:08:19;;;;;;;17.05;12.50;;;;;;;;;;10358556;28;20048;-59
2021/04/27 08:13:16;;;;;;;18.02;11.40;;;;;;;;;;10357902;28;20044;-59
2021/04/27 08:18:15;;;;;;;16.55;11.48;;;;;;;;;;10358272;28;20071;-59
2021/04/27 08:23:13;;;;;;;16.70;11.15;;;;;;;;;;10358451;28;20055;-59
2021/04/27 08:28:27;;;;;;;13.18;10.20;;;;;;;;;;10357842;28;20524;-59
2021/04/27 08:33:25;;;;;;;16.95;11.98;;;;;;;;;;10358538;28;20066;-59
2021/04/27 08:38:22;;;;;;;15.05;11.25;;;;;;;;;;10357961;28;20072;-59
2021/04/27 08:43:20;;;;;;;13.32;11.07;;;;;;;;;;10358057;28;20040;-59
2021/04/27 08:48:19;;;;;;;15.90;11.85;;;;;;;;;;10357609;28;20036;-59
2021/04/27 08:53:17;;;;;;;13.80;10.80;;;;;;;;;;10357653;28;20043;-60
2021/04/27 08:58:15;;;;;;;16.38;11.65;;;;;;;;;;10357134;28;20083;-59
2021/04/27 09:03:12;;;;;;;14.23;11.13;;;;;;;;;;10357518;28;20040;-59
2021/04/27 09:08:11;;;;;;;13.48;12.18;;;;;;;;;;10357272;28;20086;-59
2021/04/27 09:13:10;;;;;;;16.55;14.00;;;;;;;;;;10357069;28;20115;-59
2021/04/27 09:18:21;;;;;;;20.83;14.32;;;;;;;;;;10357142;28;20523;-59
2021/04/27 09:23:19;;;;;;;13.55;11.23;;;;;;;;;;10361481;28;20036;-59
2021/04/27 09:28:54;;;;;;;15.32;10.45;;;;;;;;;;10364745;28;20075;-59
2021/04/27 09:34:21;;;;;;;14.90;11.10;;;;;;;;;;10365122;28;20075;-59
2021/04/27 09:39:21;;;;;;;19.92;11.18;;;;;;;;;;10364727;28;20453;-59
2021/04/27 09:44:25;;;;;;;17.25;11.10;;;;;;;;;;10364569;28;20409;-60
2021/04/27 09:49:29;;;;;;;13.43;11.03;;;;;;;;;;10364255;28;20051;-59
2021/04/27 09:54:27;;;;;;;16.38;11.23;;;;;;;;;;10364141;28;20083;-59
2021/04/27 09:59:28;;;;;;;14.50;10.23;;;;;;;;;;10363526;28;20055;-59
2021/04/27 10:04:26;;;;;;;10.65;8.98;;;;;;;;;;10363937;28;20618;-59
2021/04/27 10:09:32;;;;;;;12.55;9.63;;;;;;;;;;10363628;28;20040;-59
2021/04/27 10:14:30;;;;;;;13.20;8.40;;;;;;;;;;10363317;28;20083;-59
2021/04/27 10:19:27;;;;;;;13.13;10.25;;;;;;;;;;10363087;28;20043;-59
2021/04/27 10:24:26;;;;;;;13.20;9.80;;;;;;;;;;10363161;28;20074;-59
2021/04/27 10:29:24;;;;;;;11.32;9.68;;;;;;;;;;10362682;28;20070;-59
2021/04/27 10:34:22;;;;;;;16.13;10.57;;;;;;;;;;10360399;28;20040;-60
2021/04/27 10:39:35;;;;;;;20.00;10.25;;;;;;;;;;10362493;28;20063;-59
2021/04/27 10:44:48;;;;;;;10.85;9.38;;;;;;;;;;10362603;28;20051;-59
2021/04/27 10:49:46;;;;;;;11.38;9.07;;;;;;;;;;10362116;28;20076;-59
2021/04/27 10:54:44;;;;;;;14.57;9.70;;;;;;;;;;10361750;28;20090;-59
2021/04/27 10:59:58;;;;;;;9.68;8.38;;;;;;;;;;10361089;28;20560;-60
2021/04/27 11:04:58;;;;;;;14.80;9.75;;;;;;;;;;10361451;28;20051;-60
2021/04/27 11:10:14;;;;;;;9.57;8.18;;;;;;;;;;10361350;28;20040;-59
2021/04/27 11:15:23;;;;;;;12.02;7.53;;;;;;;;;;10361138;28;20091;-60
2021/04/27 11:20:42;;;;;;;12.02;8.20;;;;;;;;;;10360990;28;20063;-60
2021/04/27 11:25:40;;;;;;;8.70;7.00;;;;;;;;;;10359747;28;20082;-59
2021/04/27 11:30:38;;;;;;;8.70;7.30;;;;;;;;;;10359890;28;20075;-60
2021/04/27 11:35:39;;;;;;;9.15;7.40;;;;;;;;;;10359196;28;20087;-59
2021/04/27 11:40:37;;;;;;;8.38;7.47;;;;;;;;;;10359699;28;20086;-60
2021/04/27 11:45:36;;;;;;;7.35;5.80;;;;;;;;;;10359790;28;20038;-60
2021/04/27 11:50:34;;;;;;;9.73;5.85;;;;;;;;;;10358761;28;20063;-59
2021/04/27 11:55:42;;;;;;;8.50;6.97;;;;;;;;;;10359728;28;20106;-59
2021/04/27 12:00:43;;;;;;;9.90;6.10;;;;;;;;;;10359037;28;20048;-59
2021/04/27 12:05:41;;;;;;;6.97;5.32;;;;;;;;;;10358651;28;20448;-60
2021/04/27 12:10:38;;;;;;;8.07;6.07;;;;;;;;;;10358073;28;20074;-60
2021/04/27 12:15:36;;;;;;;6.85;5.43;;;;;;;;;;10358885;28;20079;-60
2021/04/27 12:20:34;;;;;;;11.57;6.53;;;;;;;;;;10358915;28;20149;-60
2021/04/27 12:25:33;;;;;;;8.98;7.57;;;;;;;;;;10358869;28;20043;-60
2021/04/27 12:30:32;;;;;;;10.48;6.15;;;;;;;;;;10358902;28;20044;-59
2021/04/27 12:35:31;;;;;;;12.00;7.63;;;;;;;;;;10358417;28;20083;-60
2021/04/27 12:40:29;;;;;;;8.05;6.22;;;;;;;;;;10358537;28;20047;-60
2021/04/27 12:45:29;;;;;;;11.85;7.28;;;;;;;;;;10358174;28;20040;-60
2021/04/27 12:50:27;;;;;;;14.20;6.82;;;;;;;;;;10358326;28;20145;-59
2021/04/27 12:55:26;;;;;;;9.00;6.70;;;;;;;;;;10356367;28;20497;-60
2021/04/27 13:00:23;;;;;;;15.57;6.72;;;;;;;;;;10365441;28;20063;-60
2021/04/27 13:05:25;;;;;;;10.10;6.28;;;;;;;;;;10366527;28;20040;-59
2021/04/27 13:10:34;;;;;;;12.82;6.78;;;;;;;;;;10366213;28;20056;-60
2021/04/27 13:15:31;;;;;;;11.88;7.70;;;;;;;;;;10365873;28;20107;-60
2021/04/27 13:20:30;;;;;;;11.85;10.05;;;;;;;;;;10365967;28;20036;-60
2021/04/27 13:25:29;;;;;;;7.55;6.60;;;;;;;;;;10365582;28;20044;-59
2021/04/27 13:30:27;;;;;;;8.65;6.22;;;;;;;;;;10365619;28;20542;-59
2021/04/27 13:35:26;;;;;;;12.98;6.80;;;;;;;;;;10365130;28;20079;-59
2021/04/27 13:40:25;;;;;;;8.70;6.85;;;;;;;;;;10364926;28;20074;-59
2021/04/27 13:45:23;;;;;;;11.38;7.53;;;;;;;;;;10364658;28;20083;-59
2021/04/27 13:50:20;;;;;;;9.57;6.47;;;;;;;;;;10364668;28;20051;-59
2021/04/27 13:55:17;;;;;;;10.27;7.72;;;;;;;;;;10364378;28;20071;-59
2021/04/27 14:00:17;;;;;;;13.20;7.22;;;;;;;;;;10364505;28;20059;-59
2021/04/27 14:05:14;;;;;;;11.27;7.57;;;;;;;;;;10364077;28;20044;-58
2021/04/27 14:10:16;;;;;;;12.50;8.10;;;;;;;;;;10363654;28;20075;-58
2021/04/27 14:15:14;;;;;;;19.00;13.07;;;;;;;;;;10362914;28;20087;-58
2021/04/27 14:20:14;;;;;;;13.05;11.07;;;;;;;;;;10363214;28;20052;-58
2021/04/27 14:25:12;;;;;;;17.48;12.43;;;;;;;;;;10362994;28;20040;-58
2021/04/27 14:30:12;;;;;;;17.58;12.23;;;;;;;;;;10354889;28;20048;-59
2021/04/27 14:35:11;;;;;;;25.67;20.60;;;;;;;;;;10338033;28;20086;-58
2021/04/27 14:40:10;;;;;;;16.15;8.00;;;;;;;;;;10331838;28;20559;-59
2021/04/27 14:45:09;;;;;;;12.80;10.10;;;;;;;;;;10340330;28;20037;-59
2021/04/27 14:50:07;;;;;;;24.00;13.75;;;;;;;;;;10332874;28;20087;-59
2021/04/27 14:55:06;;;;;;;12.70;7.75;;;;;;;;;;10325433;28;20084;-59
2021/04/27 15:00:06;;;;;;;20.85;9.60;;;;;;;;;;10340756;28;20079;-59
2021/04/27 15:05:04;;;;;;;18.20;10.07;;;;;;;;;;10332790;28;20102;-60
2021/04/27 15:10:03;;;;;;;24.58;15.52;;;;;;;;;;10327987;28;20033;-59
2021/04/27 15:15:01;;;;;;;20.02;11.60;;;;;;;;;;10318190;28;20056;-58
2021/04/27 15:20:02;;;;;;;14.05;8.57;;;;;;;;;;10319145;28;20068;-59
2021/04/27 15:24:59;;;;;;;11.30;8.40;;;;;;;;;;10319370;28;20390;-58
2021/04/27 15:29:59;;;;;;;16.13;12.93;;;;;;;;;;10319024;28;20049;-59
2021/04/27 15:34:57;;;;;;;24.52;11.15;;;;;;;;;;10319049;28;20055;-58
2021/04/27 15:39:55;;;;;;;14.90;10.55;;;;;;;;;;10318605;28;20076;-58
2021/04/27 15:44:52;;;;;;;12.50;10.02;;;;;;;;;;10318651;28;20083;-58
2021/04/27 15:49:52;;;;;;;15.25;9.73;;;;;;;;;;10318618;28;20048;-58
2021/04/27 15:54:51;;;;;;;9.25;8.15;;;;;;;;;;10318489;28;20048;-57
2021/04/27 15:59:49;;;;;;;11.73;8.90;;;;;;;;;;10318276;28;20083;-57
2021/04/27 16:04:47;;;;;;;26.27;18.52;;;;;;;;;;10317751;28;20044;-58
2021/04/27 16:09:44;;;;;;;13.63;9.43;;;;;;;;;;10317760;28;20084;-58
2021/04/27 16:14:42;;;;;;;17.52;11.30;;;;;;;;;;10317816;28;20040;-58
2021/04/27 16:19:40;;;;;;;14.07;11.27;;;;;;;;;;10316678;28;20080;-59
2021/04/27 16:24:37;;;;;;;15.55;10.95;;;;;;;;;;10317505;28;20481;-58
2021/04/27 16:29:35;;;;;;;11.20;9.57;;;;;;;;;;10316321;28;20072;-58
2021/04/27 16:34:33;;;;;;;15.65;9.98;;;;;;;;;;10313192;28;20421;-58
2021/04/27 16:39:31;;;;;;;17.00;10.75;;;;;;;;;;10315498;28;20076;-59
2021/04/27 16:44:29;;;;;;;11.43;9.93;;;;;;;;;;10316899;28;20072;-59
2021/04/27 16:49:26;;;;;;;14.52;11.15;;;;;;;;;;10317015;28;20045;-59
2021/04/27 16:54:24;;;;;;;18.73;10.30;;;;;;;;;;10316756;28;20425;-59
2021/04/27 16:59:22;;;;;;;13.63;11.15;;;;;;;;;;10316756;28;20087;-58
2021/04/27 17:04:20;;;;;;;14.70;11.00;;;;;;;;;;10334151;28;20039;-58
2021/04/27 17:09:17;;;;;;;18.98;13.93;;;;;;;;;;10330667;28;20076;-59
2021/04/27 17:14:15;;;;;;;16.60;10.15;;;;;;;;;;10316584;28;20425;-58
2021/04/27 17:19:13;;;;;;;15.93;10.43;;;;;;;;;;10315912;28;20107;-59
2021/04/27 17:24:10;;;;;;;21.42;15.15;;;;;;;;;;10315475;28;20049;-58
2021/04/27 17:29:08;;;;;;;14.68;11.73;;;;;;;;;;10330660;28;20316;-60
2021/04/27 17:34:05;;;;;;;13.05;11.65;;;;;;;;;;10325484;28;20072;-59
2021/04/27 17:39:04;;;;;;;14.10;10.38;;;;;;;;;;10334126;28;20466;-59
2021/04/27 17:44:04;;;;;;;16.55;12.90;;;;;;;;;;10318204;28;20513;-59
2021/04/27 17:49:02;;;;;;;13.18;10.90;;;;;;;;;;10352680;28;20075;-59
2021/04/27 17:54:00;;;;;;;17.92;13.23;;;;;;;;;;10334921;28;20029;-59
2021/04/27 17:58:58;;;;;;;10.88;9.73;;;;;;;;;;10326018;28;20072;-60
2021/04/27 18:03:56;;;;;;;14.77;9.75;;;;;;;;;;10357111;28;20496;-58
2021/04/27 18:08:53;;;;;;;17.88;9.85;;;;;;;;;;10360861;28;20067;-59
2021/04/27 18:13:50;;;;;;;13.77;10.70;;;;;;;;;;10362170;28;20071;-59
2021/04/27 18:18:49;;;;;;;10.13;8.80;;;;;;;;;;10362972;28;20086;-60
2021/04/27 18:23:46;;;;;;;12.35;9.73;;;;;;;;;;10361858;28;20044;-58
2021/04/27 18:28:44;;;;;;;13.52;8.85;;;;;;;;;;10361530;28;20072;-59
2021/04/27 18:33:41;;;;;;;10.38;8.80;;;;;;;;;;10362241;28;20044;-58
2021/04/27 18:38:39;;;;;;;9.02;7.88;;;;;;;;;;10362016;28;20071;-60
2021/04/27 18:43:37;;;;;;;8.60;7.65;;;;;;;;;;10344189;28;20075;-57
2021/04/27 18:48:35;;;;;;;9.38;8.38;;;;;;;;;;10324417;28;20041;-59
2021/04/27 18:53:32;;;;;;;8.93;7.82;;;;;;;;;;10319107;28;20064;-58
2021/04/27 18:58:31;;;;;;;8.82;6.13;;;;;;;;;;10328700;28;20507;-59
2021/04/27 19:03:30;;;;;;;14.63;6.32;;;;;;;;;;10336947;28;20521;-60
2021/04/27 19:08:28;;;;;;;9.18;5.53;;;;;;;;;;10333890;28;20068;-57
2021/04/27 19:13:25;;;;;;;6.97;6.15;;;;;;;;;;10330003;28;20511;-56
2021/04/27 19:18:23;;;;;;;9.30;6.05;;;;;;;;;;10318957;28;20536;-59
2021/04/27 19:23:21;;;;;;;7.60;5.78;;;;;;;;;;10320681;28;20071;-57
2021/04/27 19:28:18;;;;;;;8.60;6.50;;;;;;;;;;10318650;28;20041;-60
2021/04/27 19:33:15;;;;;;;6.45;5.47;;;;;;;;;;10317938;28;20048;-59
2021/04/27 19:38:14;;;;;;;9.52;5.40;;;;;;;;;;10318289;28;20155;-59
2021/04/27 19:43:12;;;;;;;5.75;4.82;;;;;;;;;;10318282;28;20048;-59
2021/04/27 19:48:09;;;;;;;5.90;5.32;;;;;;;;;;10318040;28;20060;-59
2021/04/27 19:53:06;;;;;;;4.72;4.22;;;;;;;;;;10317816;28;20049;-59
2021/04/27 19:58:05;;;;;;;4.60;4.20;;;;;;;;;;10317081;28;20087;-59
2021/04/27 20:03:03;;;;;;;5.35;4.85;;;;;;;;;;10317570;28;20409;-59
2021/04/27 20:08:01;;;;;;;5.50;5.00;;;;;;;;;;10317108;28;20075;-60
2021/04/27 20:12:58;;;;;;;7.38;6.68;;;;;;;;;;10317078;28;20063;-59
2021/04/27 20:17:56;;;;;;;9.90;5.53;;;;;;;;;;10316847;28;20106;-59
2021/04/27 20:22:54;;;;;;;9.05;6.07;;;;;;;;;;10316865;28;20218;-59
2021/04/27 20:27:51;;;;;;;10.18;6.05;;;;;;;;;;10316271;28;20056;-59
2021/04/27 20:32:49;;;;;;;10.15;6.18;;;;;;;;;;10316674;28;20082;-59
2021/04/27 20:37:47;;;;;;;7.63;6.32;;;;;;;;;;10315193;28;20508;-59
2021/04/27 20:42:45;;;;;;;5.93;5.43;;;;;;;;;;10316541;28;20091;-59
2021/04/27 20:47:43;;;;;;;9.18;5.60;;;;;;;;;;10316403;28;20036;-58
2021/04/27 20:52:44;;;;;;;5.05;4.45;;;;;;;;;;10316493;28;20040;-56
2021/04/27 20:57:42;;;;;;;4.85;4.45;;;;;;;;;;10315488;28;20118;-54
2021/04/27 21:02:39;;;;;;;3.53;3.13;;;;;;;;;;10316038;28;20044;-59
2021/04/27 21:07:37;;;;;;;8.77;3.72;;;;;;;;;;10315755;28;20433;-59
2021/04/27 21:12:35;;;;;;;5.78;3.33;;;;;;;;;;10315886;28;20055;-58
2021/04/27 21:17:33;;;;;;;4.93;4.07;;;;;;;;;;10317141;28;20087;-58
2021/04/27 21:22:31;;;;;;;6.45;4.25;;;;;;;;;;10322327;28;20049;-58
2021/04/27 21:27:28;;;;;;;4.00;3.60;;;;;;;;;;10322764;28;20282;-59
2021/04/27 21:32:25;;;;;;;4.30;3.90;;;;;;;;;;10323425;28;20075;-59
2021/04/27 21:37:24;;;;;;;4.57;3.08;;;;;;;;;;10322895;28;20082;-60
2021/04/27 21:42:21;;;;;;;3.85;3.45;;;;;;;;;;10322057;28;20090;-59
2021/04/27 21:47:18;;;;;;;3.95;3.55;;;;;;;;;;10322697;28;20083;-59
2021/04/27 21:52:16;;;;;;;5.60;4.28;;;;;;;;;;10322628;28;20051;-59
2021/04/27 21:57:14;;;;;;;4.85;4.00;;;;;;;;;;10321698;28;20509;-59
2021/04/27 22:02:12;;;;;;;4.95;3.90;;;;;;;;;;10322415;28;20091;-58
2021/04/27 22:07:09;;;;;;;5.50;4.13;;;;;;;;;;10322008;28;20051;-58
2021/04/27 22:12:07;;;;;;;8.23;4.68;;;;;;;;;;10321836;28;20051;-59
2021/04/27 22:17:05;;;;;;;8.18;4.63;;;;;;;;;;10321091;28;20124;-59
2021/04/27 22:22:04;;;;;;;5.72;4.70;;;;;;;;;;10321207;28;20045;-59
2021/04/27 22:27:01;;;;;;;5.25;4.70;;;;;;;;;;10320822;28;20053;-59
2021/04/27 22:31:59;;;;;;;8.95;7.15;;;;;;;;;;10318947;28;20045;-58
2021/04/27 22:36:57;;;;;;;10.00;8.00;;;;;;;;;;10320541;28;20099;-59
2021/04/27 22:41:55;;;;;;;9.55;8.18;;;;;;;;;;10320780;28;20060;-59
2021/04/27 22:46:53;;;;;;;7.70;7.00;;;;;;;;;;10320013;28;20528;-59
2021/04/27 22:51:52;;;;;;;7.90;7.00;;;;;;;;;;10320270;28;20056;-59
2021/04/27 22:56:50;;;;;;;7.82;7.07;;;;;;;;;;10319399;28;20182;-59
2021/04/27 23:01:47;;;;;;;9.82;7.32;;;;;;;;;;10319931;28;20485;-59
2021/04/27 23:06:45;;;;;;;8.40;7.18;;;;;;;;;;10319464;28;20077;-59
2021/04/27 23:11:42;;;;;;;7.82;7.03;;;;;;;;;;10319126;28;20049;-58
2021/04/27 23:16:40;;;;;;;9.70;7.80;;;;;;;;;;10319268;28;20052;-59
2021/04/27 23:21:38;;;;;;;9.15;7.85;;;;;;;;;;10318813;28;20052;-58
2021/04/27 23:26:36;;;;;;;8.60;7.55;;;;;;;;;;10318794;28;20056;-58
2021/04/27 23:31:33;;;;;;;6.90;6.30;;;;;;;;;;10318521;28;20083;-58
2021/04/27 23:36:31;;;;;;;6.57;5.97;;;;;;;;;;10318078;28;20048;-59
2021/04/27 23:41:29;;;;;;;5.78;5.25;;;;;;;;;;10317299;28;20512;-58
2021/04/27 23:46:26;;;;;;;6.13;5.53;;;;;;;;;;10318121;28;20075;-57
2021/04/27 23:51:24;;;;;;;6.60;5.88;;;;;;;;;;10317566;28;20095;-59
2021/04/27 23:56:22;;;;;;;6.28;5.60;;;;;;;;;;10317033;28;20079;-59
